Time;durP1;ratioP1;P1;durP2;ratioP2;P2;SDS_P1;SDS_P2;PMS_P1;PMS_P2;Temp;Humidity;BMP_temperature;BMP_pressure;BME280_temperature;BME280_humidity;BME280_pressure;Samples;Min_cycle;Max_cycle;Signal;HPM_P1;HPM_P2
2022/10/26 00:01:26;;;;;;;8.10;2.95;;;;;;;23.10;48.25;101461.81;4198788;28;20029;-76
2022/10/26 00:03:27;;;;;;;9.90;2.22;;;;;;;23.13;48.43;101466.81;4197429;28;20422;-76
2022/10/26 00:05:32;;;;;;;5.47;2.60;;;;;;;23.01;48.21;101446.78;4198342;28;20041;-76
2022/10/26 00:07:33;;;;;;;4.97;3.00;;;;;;;23.13;48.42;101452.03;4198670;28;20040;-76
2022/10/26 00:09:35;;;;;;;7.45;2.13;;;;;;;23.03;48.25;101441.72;4198282;28;20036;-76
2022/10/26 00:11:36;;;;;;;3.42;2.47;;;;;;;23.13;48.23;101464.03;4198362;28;20098;-76
2022/10/26 00:13:38;;;;;;;8.35;2.78;;;;;;;23.13;48.04;101446.44;4208509;28;20036;-77
2022/10/26 00:15:41;;;;;;;10.23;2.40;;;;;;;22.90;48.22;101417.19;4214521;28;20082;-76
2022/10/26 00:17:43;;;;;;;10.10;2.60;;;;;;;22.90;48.35;101406.88;4215219;28;20040;-75
2022/10/26 00:19:44;;;;;;;6.63;2.83;;;;;;;23.00;48.15;101418.03;4215261;28;20028;-76
2022/10/26 00:21:52;;;;;;;5.53;2.92;;;;;;;23.10;48.20;101430.28;4215423;28;20028;-76
2022/10/26 00:23:53;;;;;;;7.32;2.88;;;;;;;23.13;48.19;101427.72;4216096;28;20028;-76
2022/10/26 00:25:55;;;;;;;2.95;2.30;;;;;;;23.13;48.18;101432.50;4214647;28;20039;-76
2022/10/26 00:27:57;;;;;;;6.40;2.50;;;;;;;23.12;48.14;101431.66;4215254;28;20077;-76
2022/10/26 00:29:58;;;;;;;3.33;2.40;;;;;;;23.11;48.22;101430.00;4215074;28;20517;-76
2022/10/26 00:32:02;;;;;;;3.22;2.40;;;;;;;23.12;47.98;101426.06;4214821;28;20105;-76
2022/10/26 00:34:03;;;;;;;4.43;2.67;;;;;;;23.11;48.15;101424.41;4214887;28;20039;-76
2022/10/26 00:36:05;;;;;;;3.80;2.30;;;;;;;23.08;48.30;101413.78;4214816;28;20414;-75
2022/10/26 00:38:15;;;;;;;6.72;2.63;;;;;;;23.10;48.06;101428.31;4214628;28;20044;-75
2022/10/26 00:40:22;;;;;;;5.47;2.47;;;;;;;22.97;48.15;101393.47;4214898;28;20459;-76
2022/10/26 00:42:23;;;;;;;5.63;2.20;;;;;;;23.13;48.03;101421.31;4214678;28;20036;-75
2022/10/26 00:44:45;;;;;;;9.27;2.40;;;;;;;23.10;48.05;101417.16;4214478;28;20036;-76
2022/10/26 00:46:47;;;;;;;4.63;2.55;;;;;;;23.01;48.01;101396.53;4214356;28;20036;-76
2022/10/26 00:48:52;;;;;;;7.53;2.33;;;;;;;23.11;48.17;101418.81;4214832;28;20417;-75
2022/10/26 00:50:55;;;;;;;4.72;2.60;;;;;;;23.12;47.90;101420.50;4214244;28;20043;-76
2022/10/26 00:53:02;;;;;;;4.35;2.63;;;;;;;23.11;47.96;101427.19;4214411;28;20036;-76
2022/10/26 00:55:07;;;;;;;4.50;2.20;;;;;;;23.11;47.76;101424.41;4214318;28;20089;-76
2022/10/26 00:57:10;;;;;;;;;;;;;;;23.09;48.26;101421.03;4214780;28;20093;-76
2022/10/26 00:59:14;;;;;;;3.67;2.50;;;;;;;23.15;48.01;101419.09;4214826;28;19916;-76
2022/10/26 01:01:15;;;;;;;5.03;2.22;;;;;;;22.91;47.78;101385.38;4215031;28;20032;-75
2022/10/26 01:03:17;;;;;;;3.80;2.42;;;;;;;23.13;47.82;101421.31;4213004;28;20074;-76
2022/10/26 01:05:18;;;;;;;5.18;2.60;;;;;;;22.86;48.08;101375.03;4197040;28;20549;-76
2022/10/26 01:07:20;;;;;;;4.07;2.45;;;;;;;23.12;47.94;101419.66;4198120;28;20086;-76
2022/10/26 01:09:24;;;;;;;5.25;2.42;;;;;;;23.11;47.84;101418.81;4197862;28;20101;-75
2022/10/26 01:11:25;;;;;;;4.25;2.80;;;;;;;23.11;47.91;101418.00;4197245;28;20460;-76
2022/10/26 01:13:35;;;;;;;3.97;2.50;;;;;;;23.10;48.00;101422.75;4197312;28;20071;-75
2022/10/26 01:15:51;;;;;;;4.55;2.40;;;;;;;23.10;47.92;101419.13;4197537;28;20537;-76
2022/10/26 01:18:22;;;;;;;4.43;2.20;;;;;;;23.07;47.99;101417.72;4197594;28;20110;-76
2022/10/26 01:20:47;;;;;;;4.95;2.20;;;;;;;23.11;47.89;101418.00;4196310;28;20082;-75
2022/10/26 01:22:57;;;;;;;5.35;2.33;;;;;;;23.11;47.71;101407.66;4197785;28;20078;-75
2022/10/26 01:25:31;;;;;;;2.92;2.20;;;;;;;23.09;47.84;101412.66;4199571;28;20097;-75
2022/10/26 01:27:40;;;;;;;3.45;2.20;;;;;;;22.80;47.84;101357.47;4206503;28;20040;-76
2022/10/26 01:30:01;;;;;;;3.35;2.60;;;;;;;23.12;47.82;101403.75;4214141;28;20113;-74
2022/10/26 01:32:25;;;;;;;5.30;2.40;;;;;;;22.98;48.19;101392.34;4214304;28;20119;-76
2022/10/26 01:34:35;;;;;;;3.00;2.40;;;;;;;22.92;47.72;101378.69;4214027;28;20036;-76
2022/10/26 01:36:56;;;;;;;3.65;2.80;;;;;;;23.11;47.90;101407.66;4214643;28;20152;-77
2022/10/26 01:39:24;;;;;;;4.82;2.30;;;;;;;23.11;47.72;101404.88;4215413;28;20077;-74
2022/10/26 01:41:45;;;;;;;2.72;2.20;;;;;;;22.17;47.73;101253.06;4210490;28;20040;-74
2022/10/26 01:43:54;;;;;;;3.17;2.47;;;;;;;23.11;48.13;101404.88;4214503;28;20035;-75
2022/10/26 01:45:57;;;;;;;3.45;2.28;;;;;;;22.89;47.83;101370.84;4213416;28;20048;-75
2022/10/26 01:48:01;;;;;;;4.40;2.60;;;;;;;23.11;47.96;101401.25;4214438;28;20093;-76
2022/10/26 01:50:04;;;;;;;4.95;2.55;;;;;;;23.11;47.63;101406.81;4212158;28;20085;-74
2022/10/26 01:52:05;;;;;;;4.28;2.58;;;;;;;23.11;47.74;101413.25;4213819;28;20040;-76
2022/10/26 01:54:06;;;;;;;3.78;2.40;;;;;;;23.09;47.77;101404.28;4214138;28;20097;-76
2022/10/26 01:56:18;;;;;;;4.57;2.53;;;;;;;23.08;48.02;101402.63;4213230;28;20037;-75
2022/10/26 01:58:31;;;;;;;5.20;2.60;;;;;;;23.06;48.08;101407.69;4213796;28;20070;-76
2022/10/26 02:00:38;;;;;;;4.68;2.40;;;;;;;23.07;48.07;101407.38;4214113;28;20040;-76
2022/10/26 02:02:45;;;;;;;4.18;2.78;;;;;;;23.07;47.89;101412.13;4213932;28;20093;-76
2022/10/26 02:05:27;;;;;;;3.13;2.45;;;;;;;23.05;47.96;101415.22;4214149;28;20073;-76
2022/10/26 02:07:39;;;;;;;4.63;2.50;;;;;;;23.08;48.11;101414.63;4202053;28;20040;-75
2022/10/26 02:10:00;;;;;;;3.50;2.30;;;;;;;23.08;47.90;101414.63;4198776;28;20040;-74
2022/10/26 02:12:10;;;;;;;3.50;2.53;;;;;;;23.02;48.10;101409.38;4166012;28;20049;-74
2022/10/26 02:14:21;;;;;;;2.92;2.13;;;;;;;22.86;48.08;101382.56;4196436;28;20090;-76
2022/10/26 02:16:24;;;;;;;4.13;2.55;;;;;;;23.10;47.93;101416.31;4200083;28;20086;-75
2022/10/26 02:18:53;;;;;;;3.38;2.40;;;;;;;23.08;47.98;101413.78;4200471;28;20390;-74
2022/10/26 02:21:04;;;;;;;3.80;2.55;;;;;;;22.80;47.98;101371.44;4200037;28;20376;-77
2022/10/26 02:23:11;;;;;;;4.25;2.45;;;;;;;23.08;48.07;101419.38;4199852;28;20045;-71
2022/10/26 02:25:41;;;;;;;5.20;2.65;;;;;;;23.08;48.12;101408.22;4198468;28;20048;-71
2022/10/26 02:27:48;;;;;;;5.50;2.20;;;;;;;23.09;48.04;101415.47;4199652;28;20040;-71
2022/10/26 02:29:52;;;;;;;5.50;2.70;;;;;;;23.10;47.82;101413.53;4198746;28;20093;-71
2022/10/26 02:31:54;;;;;;;3.03;2.55;;;;;;;22.97;48.08;101389.84;4194362;28;20070;-71
2022/10/26 02:34:01;;;;;;;3.63;2.72;;;;;;;23.12;48.05;101414.91;4198282;28;20048;-71
2022/10/26 02:36:06;;;;;;;3.22;2.60;;;;;;;23.15;48.34;101414.34;4199719;28;20113;-70
2022/10/26 02:38:11;;;;;;;4.85;2.35;;;;;;;23.17;48.13;101411.25;4200030;28;20025;-71
2022/10/26 02:40:18;;;;;;;2.83;2.40;;;;;;;23.18;48.37;101407.34;4200176;28;20040;-71
2022/10/26 02:42:22;;;;;;;5.03;2.40;;;;;;;23.05;48.25;101390.09;4198192;28;20467;-71
2022/10/26 02:44:26;;;;;;;3.75;2.38;;;;;;;23.16;48.09;101401.22;4196944;28;20044;-70
2022/10/26 02:46:31;;;;;;;3.22;2.42;;;;;;;23.18;47.85;101402.59;4199115;28;20037;-71
2022/10/26 02:48:33;;;;;;;3.47;2.50;;;;;;;23.07;47.86;101379.47;4199565;28;20041;-71
2022/10/26 02:50:52;;;;;;;3.60;2.10;;;;;;;23.20;47.76;101391.97;4199867;28;20441;-73
2022/10/26 02:53:06;;;;;;;4.38;2.72;;;;;;;23.22;47.59;101392.53;4199959;28;20044;-72
2022/10/26 02:55:10;;;;;;;3.55;2.35;;;;;;;23.24;47.46;101392.25;4199286;28;20796;-72
2022/10/26 02:57:27;;;;;;;3.35;2.63;;;;;;;23.05;47.33;101361.34;4199407;28;20048;-70
2022/10/26 02:59:34;;;;;;;4.15;2.53;;;;;;;23.04;47.49;101351.28;4199849;28;20098;-72
2022/10/26 03:01:36;;;;;;;3.15;2.42;;;;;;;23.26;47.54;101385.25;4199048;28;20493;-72
2022/10/26 03:03:37;;;;;;;3.67;2.80;;;;;;;23.17;47.26;101361.00;4199474;28;20189;-72
2022/10/26 03:05:41;;;;;;;4.78;2.83;;;;;;;23.28;47.38;101383.03;4198418;28;20048;-72
2022/10/26 03:07:42;;;;;;;2.95;2.53;;;;;;;23.06;47.17;101349.91;4200151;28;20063;-70
2022/10/26 03:09:44;;;;;;;4.75;2.50;;;;;;;22.65;47.22;101276.63;4200233;28;20037;-70
2022/10/26 03:11:45;;;;;;;3.60;2.50;;;;;;;23.25;47.40;101380.78;4199932;28;20040;-72
2022/10/26 03:13:49;;;;;;;3.35;2.35;;;;;;;23.25;47.24;101380.78;4200724;28;20052;-71
2022/10/26 03:15:55;;;;;;;2.92;2.58;;;;;;;23.28;47.46;101383.03;4203774;28;20036;-71
2022/10/26 03:17:56;;;;;;;2.35;2.15;;;;;;;23.30;47.41;101383.56;4203140;28;20052;-72
2022/10/26 03:19:58;;;;;;;3.28;2.53;;;;;;;23.23;47.38;101371.03;4199317;28;20040;-71
2022/10/26 03:21:59;;;;;;;4.10;2.47;;;;;;;23.27;47.49;101375.75;4197896;28;20106;-71
2022/10/26 03:24:00;;;;;;;2.92;2.35;;;;;;;23.32;47.28;101374.88;4196054;28;20040;-72
2022/10/26 03:26:02;;;;;;;3.60;2.53;;;;;;;23.31;47.28;101374.06;4197602;28;20472;-71
2022/10/26 03:28:04;;;;;;;3.92;2.60;;;;;;;23.32;47.21;101372.94;4199195;28;20097;-72
2022/10/26 03:30:08;;;;;;;4.43;2.60;;;;;;;23.30;47.40;101371.56;4198999;28;20036;-72
2022/10/26 03:32:09;;;;;;;4.70;2.47;;;;;;;23.22;47.59;101350.66;4199000;28;20715;-70
2022/10/26 03:34:14;;;;;;;3.60;2.45;;;;;;;23.33;47.20;101377.41;4204430;28;20256;-70
2022/10/26 03:36:18;;;;;;;6.93;2.33;;;;;;;23.23;47.35;101360.72;4199010;28;20049;-70
2022/10/26 03:38:19;;;;;;;4.43;2.45;;;;;;;23.36;47.21;101369.56;4198852;28;20036;-71
2022/10/26 03:40:29;;;;;;;5.80;2.50;;;;;;;23.36;47.36;101377.94;4199446;28;20422;-71
2022/10/26 03:42:35;;;;;;;4.30;2.63;;;;;;;23.35;47.44;101368.72;4186636;28;20102;-71
2022/10/26 03:44:40;;;;;;;3.33;2.50;;;;;;;23.36;47.57;101363.97;4198644;28;20210;-71
2022/10/26 03:46:41;;;;;;;6.22;2.75;;;;;;;23.37;47.28;101374.03;4198306;28;20041;-70
2022/10/26 03:48:42;;;;;;;5.25;2.65;;;;;;;23.37;47.23;101366.50;4198830;28;20032;-70
2022/10/26 03:50:44;;;;;;;5.53;2.90;;;;;;;23.21;47.37;101340.59;4199255;28;20037;-70
2022/10/26 03:52:49;;;;;;;5.25;2.83;;;;;;;23.21;47.76;101339.78;4198660;28;20090;-71
2022/10/26 03:54:54;;;;;;;3.47;2.60;;;;;;;23.37;47.73;101365.66;4198400;28;20095;-71
2022/10/26 03:56:56;;;;;;;6.53;2.60;;;;;;;23.38;47.76;101367.34;4198202;28;20040;-71
2022/10/26 03:58:57;;;;;;;3.63;2.38;;;;;;;23.37;47.77;101358.13;4198755;28;20125;-71
2022/10/26 04:00:58;;;;;;;3.10;2.40;;;;;;;23.36;47.66;101362.03;4198149;28;20102;-71
2022/10/26 04:02:59;;;;;;;2.95;2.35;;;;;;;23.36;48.01;101359.22;4198318;28;20101;-71
2022/10/26 04:05:01;;;;;;;3.53;2.20;;;;;;;23.37;47.69;101360.06;4197974;28;20548;-71
2022/10/26 04:07:02;;;;;;;3.53;2.42;;;;;;;23.24;47.66;101347.59;4198311;28;20049;-70
2022/10/26 04:09:09;;;;;;;4.47;2.90;;;;;;;23.32;47.86;101359.00;4199104;28;20032;-70
2022/10/26 04:11:10;;;;;;;4.18;2.47;;;;;;;23.37;47.78;101368.44;4197746;28;20028;-71
2022/10/26 04:13:11;;;;;;;4.40;2.80;;;;;;;23.37;47.61;101365.66;4198527;28;20066;-71
2022/10/26 04:15:13;;;;;;;2.80;2.45;;;;;;;23.34;47.89;101367.06;4198062;28;20032;-71
2022/10/26 04:17:17;;;;;;;3.42;2.30;;;;;;;23.23;47.67;101343.97;4198372;28;20094;-71
2022/10/26 04:19:21;;;;;;;3.63;2.67;;;;;;;23.37;47.73;101365.66;4198486;28;20476;-71
2022/10/26 04:21:23;;;;;;;2.95;2.30;;;;;;;23.37;47.71;101355.34;4197411;28;20422;-70
2022/10/26 04:23:24;;;;;;;3.20;2.50;;;;;;;23.37;47.55;101355.34;4197985;28;20044;-71
2022/10/26 04:25:32;;;;;;;3.70;2.50;;;;;;;23.32;47.66;101353.41;4204375;28;20438;-70
2022/10/26 04:27:36;;;;;;;4.05;2.33;;;;;;;23.30;47.89;101338.88;4215224;28;20086;-71
2022/10/26 04:29:37;;;;;;;3.45;2.75;;;;;;;23.37;48.08;101351.69;4209985;28;20048;-71
2022/10/26 04:31:40;;;;;;;4.00;2.13;;;;;;;23.38;47.96;101345.00;4198196;28;20537;-71
2022/10/26 04:33:41;;;;;;;2.85;2.45;;;;;;;23.34;47.75;101339.97;4197960;28;20094;-71
2022/10/26 04:35:46;;;;;;;3.05;2.45;;;;;;;23.38;47.99;101339.41;4197837;28;20411;-70
2022/10/26 04:37:48;;;;;;;3.53;2.42;;;;;;;23.38;47.43;101337.44;4196969;28;20093;-70
2022/10/26 04:39:49;;;;;;;3.42;2.67;;;;;;;23.40;47.92;101337.16;4197814;28;20044;-71
2022/10/26 04:41:50;;;;;;;2.85;2.22;;;;;;;23.24;47.69;101306.53;4198208;28;20036;-70
2022/10/26 04:43:52;;;;;;;2.97;2.35;;;;;;;23.40;47.81;101331.56;4196438;28;20090;-70
2022/10/26 04:45:59;;;;;;;3.40;2.60;;;;;;;23.40;47.62;101332.41;4208453;28;20101;-71
2022/10/26 04:48:03;;;;;;;3.13;2.35;;;;;;;23.41;47.54;101327.66;4214470;28;20561;-70
2022/10/26 04:50:05;;;;;;;3.75;2.42;;;;;;;23.40;47.51;101323.19;4214725;28;20409;-70
2022/10/26 04:52:07;;;;;;;2.70;2.10;;;;;;;23.27;47.76;101305.94;4214169;28;20032;-71
2022/10/26 04:54:11;;;;;;;3.58;2.63;;;;;;;23.41;47.74;101322.88;4214416;28;20040;-70
2022/10/26 04:56:12;;;;;;;4.13;2.38;;;;;;;23.41;47.55;101313.69;4214055;28;20440;-70
2022/10/26 04:58:13;;;;;;;2.63;2.20;;;;;;;23.40;47.59;101324.03;4214258;28;20097;-70
2022/10/26 05:00:15;;;;;;;3.08;2.53;;;;;;;23.36;47.71;101313.72;4213575;28;20040;-70
2022/10/26 05:02:16;;;;;;;3.35;2.35;;;;;;;23.27;47.85;101291.16;4214592;28;20028;-70
2022/10/26 05:04:17;;;;;;;3.35;2.90;;;;;;;23.39;47.87;101313.97;4214006;28;20066;-71
2022/10/26 05:06:19;;;;;;;2.40;2.20;;;;;;;23.40;47.54;101312.84;4214493;28;21142;-71
2022/10/26 05:08:21;;;;;;;3.15;2.25;;;;;;;23.40;47.83;101310.06;4214179;28;20043;-69
2022/10/26 05:10:23;;;;;;;2.83;2.38;;;;;;;23.40;47.79;101304.47;4214750;28;20089;-71
2022/10/26 05:12:24;;;;;;;3.45;2.13;;;;;;;23.40;47.91;101309.22;4213991;28;20085;-70
2022/10/26 05:14:25;;;;;;;3.58;2.22;;;;;;;23.41;47.54;101305.31;4208451;28;20108;-70
2022/10/26 05:16:32;;;;;;;3.20;2.33;;;;;;;23.38;47.71;101297.53;4212855;28;20089;-71
2022/10/26 05:18:33;;;;;;;3.08;2.17;;;;;;;23.42;47.65;101301.41;4213991;28;20437;-71
2022/10/26 05:20:36;;;;;;;2.72;2.17;;;;;;;23.38;47.62;101303.09;4214476;28;20024;-70
2022/10/26 05:22:37;;;;;;;3.30;2.15;;;;;;;23.40;47.70;101298.88;4214179;28;20036;-70
2022/10/26 05:24:41;;;;;;;2.70;2.22;;;;;;;23.40;47.75;101286.88;4214280;28;20457;-71
2022/10/26 05:26:43;;;;;;;2.83;2.17;;;;;;;23.41;47.45;101288.53;4213610;28;20040;-69
2022/10/26 05:28:44;;;;;;;2.63;2.42;;;;;;;23.38;47.58;101289.13;4214228;28;20544;-70
2022/10/26 05:30:46;;;;;;;3.92;2.20;;;;;;;23.41;47.72;101291.34;4200198;28;20521;-70
2022/10/26 05:32:53;;;;;;;2.97;2.67;;;;;;;23.39;47.82;101280.47;4197754;28;20040;-70
2022/10/26 05:34:55;;;;;;;3.47;2.47;;;;;;;23.41;47.55;101282.97;4196793;28;20480;-70
2022/10/26 05:36:56;;;;;;;2.38;2.13;;;;;;;23.41;47.88;101282.97;4197441;28;20471;-70
2022/10/26 05:39:00;;;;;;;2.60;2.10;;;;;;;23.22;47.61;101252.91;4196088;28;20048;-71
2022/10/26 05:41:04;;;;;;;3.30;2.50;;;;;;;23.40;47.84;101267.34;4196623;28;20040;-69
2022/10/26 05:43:08;;;;;;;2.90;2.35;;;;;;;23.40;47.69;101272.91;4197776;28;20475;-70
2022/10/26 05:45:13;;;;;;;2.50;2.30;;;;;;;23.41;47.39;101271.78;4195725;28;20098;-70
2022/10/26 05:47:14;;;;;;;3.40;2.30;;;;;;;23.20;47.58;101232.00;4191599;28;20089;-71
2022/10/26 05:49:15;;;;;;;3.33;2.45;;;;;;;23.40;47.72;101264.53;4197098;28;20281;-70
2022/10/26 05:51:16;;;;;;;4.32;2.75;;;;;;;23.42;47.87;101273.47;4198573;28;20429;-70
2022/10/26 05:53:18;;;;;;;2.65;2.45;;;;;;;23.39;47.57;101262.88;4200547;28;20414;-70
2022/10/26 05:55:20;;;;;;;2.63;2.42;;;;;;;23.41;47.75;101260.63;4200214;28;20044;-70
2022/10/26 05:57:21;;;;;;;2.38;2.13;;;;;;;23.40;47.44;101262.56;4199988;28;20109;-71
2022/10/26 05:59:23;;;;;;;4.03;2.17;;;;;;;23.40;47.88;101258.94;4200093;28;20098;-71
2022/10/26 06:01:37;;;;;;;3.83;2.80;;;;;;;23.40;47.71;101261.75;4200632;28;20553;-70
2022/10/26 06:04:10;;;;;;;4.28;2.97;;;;;;;23.40;47.91;101270.13;4200577;28;20103;-70
2022/10/26 06:06:12;;;;;;;2.55;2.10;;;;;;;23.23;47.72;101231.41;4199191;28;20368;-71
2022/10/26 06:08:14;;;;;;;2.85;2.45;;;;;;;23.42;47.55;101267.91;4199636;28;20509;-70
2022/10/26 06:10:19;;;;;;;3.05;2.20;;;;;;;23.42;47.96;101267.91;4200425;28;20036;-70
2022/10/26 06:12:20;;;;;;;2.47;2.13;;;;;;;23.40;47.51;101251.41;4200434;28;20078;-71
2022/10/26 06:14:22;;;;;;;3.47;2.60;;;;;;;23.41;47.79;101267.03;4199995;28;20040;-71
2022/10/26 06:16:38;;;;;;;2.75;2.40;;;;;;;23.39;47.96;101254.50;4200020;28;20044;-70
2022/10/26 06:18:57;;;;;;;4.03;2.40;;;;;;;23.42;47.58;101262.31;4200280;28;20040;-70
2022/10/26 06:21:18;;;;;;;2.65;2.22;;;;;;;23.39;47.61;101251.72;4200427;28;20037;-71
2022/10/26 06:23:38;;;;;;;3.75;2.47;;;;;;;23.38;47.56;101250.88;4200081;28;20040;-71
2022/10/26 06:26:00;;;;;;;2.75;2.08;;;;;;;23.40;47.78;101253.38;4183496;28;20099;-71
2022/10/26 06:28:44;;;;;;;3.28;2.50;;;;;;;23.39;47.69;101248.91;4193359;28;20098;-71
2022/10/26 06:30:51;;;;;;;3.15;2.53;;;;;;;23.30;47.83;101229.97;4200425;28;20032;-70
2022/10/26 06:32:54;;;;;;;3.00;2.53;;;;;;;23.41;47.70;101246.66;4200128;28;20078;-71
2022/10/26 06:35:12;;;;;;;3.50;2.28;;;;;;;23.38;47.85;101244.47;4199241;28;20111;-70
2022/10/26 06:37:38;;;;;;;2.83;2.53;;;;;;;23.38;47.76;101238.88;4199420;28;20414;-70
2022/10/26 06:39:49;;;;;;;3.53;2.47;;;;;;;23.21;47.52;101251.25;4199729;28;20082;-70
2022/10/26 06:41:51;;;;;;;2.88;2.30;;;;;;;23.29;47.66;101221.91;4209852;28;20097;-71
2022/10/26 06:43:58;;;;;;;3.53;2.70;;;;;;;23.40;47.75;101245.00;4216261;28;20093;-71
2022/10/26 06:46:06;;;;;;;4.80;2.38;;;;;;;23.40;47.79;101247.78;4200110;28;20097;-71
2022/10/26 06:48:15;;;;;;;3.53;2.22;;;;;;;23.30;47.90;101227.19;4199869;28;20041;-71
2022/10/26 06:50:52;;;;;;;3.40;2.45;;;;;;;23.22;47.62;101213.00;4197698;28;20098;-71
2022/10/26 06:53:04;;;;;;;3.42;2.38;;;;;;;23.39;47.42;101234.94;4163131;28;20452;-71
2022/10/26 06:55:12;;;;;;;2.70;2.47;;;;;;;23.39;47.83;101234.94;4173505;28;20048;-71
2022/10/26 06:57:15;;;;;;;3.40;2.40;;;;;;;23.41;47.63;101238.28;4199305;28;20040;-70
2022/10/26 06:59:30;;;;;;;2.92;2.45;;;;;;;23.38;47.73;101227.72;4205791;28;20438;-71
2022/10/26 07:01:31;;;;;;;2.72;2.25;;;;;;;23.39;47.54;101229.38;4202255;28;20086;-71
2022/10/26 07:03:33;;;;;;;2.40;2.13;;;;;;;23.38;47.66;101224.91;4199725;28;20036;-71
2022/10/26 07:05:34;;;;;;;2.85;2.40;;;;;;;23.40;47.76;101225.44;4213779;28;20090;-71
2022/10/26 07:07:39;;;;;;;3.20;2.30;;;;;;;23.19;47.47;101196.84;4200551;28;20111;-71
2022/10/26 07:09:40;;;;;;;3.13;2.45;;;;;;;23.39;47.78;101213.44;4199137;28;20058;-70
2022/10/26 07:11:41;;;;;;;3.85;2.47;;;;;;;23.38;47.58;101214.56;4198590;28;20089;-70
2022/10/26 07:13:43;;;;;;;2.50;2.20;;;;;;;23.38;47.57;101209.00;4195500;28;20442;-71
2022/10/26 07:15:44;;;;;;;2.72;2.42;;;;;;;23.39;47.56;101207.03;4202341;28;20549;-71
2022/10/26 07:17:47;;;;;;;3.20;2.70;;;;;;;23.36;47.52;101202.00;4216235;28;20040;-71
2022/10/26 07:19:49;;;;;;;2.60;2.40;;;;;;;23.38;47.71;101200.59;4216243;28;20085;-71
2022/10/26 07:21:55;;;;;;;3.08;2.33;;;;;;;23.38;47.41;101191.41;4216217;28;20097;-71
2022/10/26 07:23:56;;;;;;;3.28;2.60;;;;;;;23.37;47.61;101190.56;4215905;28;20040;-71
2022/10/26 07:26:06;;;;;;;3.88;2.65;;;;;;;20.86;47.78;100832.66;4215704;28;20044;-71
2022/10/26 07:28:14;;;;;;;2.63;2.10;;;;;;;23.37;47.91;101184.13;4215761;28;20055;-71
2022/10/26 07:30:16;;;;;;;4.55;2.53;;;;;;;23.29;47.79;101169.69;4215664;28;20048;-71
2022/10/26 07:32:23;;;;;;;3.72;2.88;;;;;;;23.29;47.66;101166.88;4207960;28;20492;-70
2022/10/26 07:34:24;;;;;;;3.00;2.70;;;;;;;23.36;47.77;101169.34;4199207;28;20475;-70
2022/10/26 07:36:27;;;;;;;4.55;2.42;;;;;;;23.36;47.61;101169.34;4198849;28;20078;-70
2022/10/26 07:38:28;;;;;;;3.58;2.30;;;;;;;23.37;47.48;101164.56;4199187;28;20434;-70
2022/10/26 07:40:31;;;;;;;5.32;2.45;;;;;;;23.36;47.46;101163.75;4197157;28;20040;-70
2022/10/26 07:42:32;;;;;;;3.53;2.40;;;;;;;23.37;47.78;101164.56;4197619;28;20472;-70
2022/10/26 07:44:33;;;;;;;3.08;2.30;;;;;;;23.37;47.52;101164.56;4196155;28;20114;-71
2022/10/26 07:46:37;;;;;;;2.75;2.35;;;;;;;23.38;47.73;101160.69;4198123;28;20442;-70
2022/10/26 07:48:43;;;;;;;2.47;2.28;;;;;;;23.33;47.45;101154.00;4198405;28;20090;-70
2022/10/26 07:50:45;;;;;;;3.33;2.67;;;;;;;23.38;47.62;101149.50;4201923;28;20434;-71
2022/10/26 07:52:46;;;;;;;2.65;2.30;;;;;;;23.38;47.85;101155.94;4199002;28;20082;-70
2022/10/26 07:54:47;;;;;;;2.75;2.45;;;;;;;23.38;47.77;101138.34;4198258;28;20037;-70
2022/10/26 07:56:51;;;;;;;2.78;2.17;;;;;;;23.37;47.66;101148.69;4198386;28;20040;-71
2022/10/26 07:58:56;;;;;;;2.60;2.30;;;;;;;23.37;47.67;101147.81;4198261;28;20045;-71
2022/10/26 08:01:08;;;;;;;3.83;2.72;;;;;;;23.37;47.79;101142.25;4198456;28;20074;-70
2022/10/26 08:03:10;;;;;;;3.47;2.30;;;;;;;23.27;47.37;101121.66;4198133;28;20036;-71
2022/10/26 08:05:11;;;;;;;2.30;2.10;;;;;;;23.30;47.43;101120.25;4197043;28;20094;-71
2022/10/26 08:07:15;;;;;;;3.25;2.33;;;;;;;23.34;47.65;101121.34;4197657;28;20074;-70
2022/10/26 08:09:22;;;;;;;2.38;2.10;;;;;;;23.38;47.76;101127.16;4184901;28;20079;-70
2022/10/26 08:11:23;;;;;;;3.60;3.05;;;;;;;23.38;47.48;101124.38;4194921;28;20105;-70
2022/10/26 08:13:28;;;;;;;2.50;1.92;;;;;;;23.37;47.45;101123.56;4198401;28;20040;-70
2022/10/26 08:15:32;;;;;;;2.67;2.15;;;;;;;23.37;47.54;101115.16;4198015;28;20040;-70
2022/10/26 08:17:33;;;;;;;2.95;2.30;;;;;;;23.33;47.67;101109.34;4198064;28;20095;-71
2022/10/26 08:19:35;;;;;;;2.50;2.30;;;;;;;23.38;47.51;101113.22;4197092;28;20086;-71
2022/10/26 08:21:36;;;;;;;4.05;2.40;;;;;;;23.37;47.58;101105.94;4197547;28;20040;-70
2022/10/26 08:23:37;;;;;;;3.42;2.40;;;;;;;23.30;47.45;101093.16;4198159;28;20045;-70
2022/10/26 08:25:39;;;;;;;2.40;2.20;;;;;;;23.37;47.61;101103.13;4197499;28;20537;-71
2022/10/26 08:27:40;;;;;;;3.20;2.45;;;;;;;23.36;47.88;101110.69;4197009;28;20044;-71
2022/10/26 08:29:42;;;;;;;2.63;2.30;;;;;;;23.37;47.55;101108.72;4197191;28;20044;-68
2022/10/26 08:31:44;;;;;;;4.10;1.90;;;;;;;23.36;47.43;101107.91;4187510;28;20111;-70
2022/10/26 08:33:47;;;;;;;3.28;2.55;;;;;;;23.24;47.64;101080.38;4192329;28;20044;-70
2022/10/26 08:36:00;;;;;;;3.22;2.25;;;;;;;23.33;47.88;101095.38;4196990;28;20094;-71
2022/10/26 08:38:02;;;;;;;3.78;2.97;;;;;;;23.33;47.66;101095.38;4197253;28;20553;-70
2022/10/26 08:40:04;;;;;;;2.70;2.30;;;;;;;23.21;47.58;101067.00;4197436;28;20118;-71
2022/10/26 08:42:41;;;;;;;2.88;2.13;;;;;;;23.08;47.85;101042.56;4193214;28;20533;-70
2022/10/26 08:44:57;;;;;;;3.45;2.22;;;;;;;23.38;47.70;101093.66;4194425;28;20040;-70
2022/10/26 08:47:19;;;;;;;2.50;2.30;;;;;;;23.36;47.75;101098.69;4182158;28;20044;-71
2022/10/26 08:49:25;;;;;;;2.92;2.17;;;;;;;23.39;47.77;101098.13;4180909;28;20045;-70
2022/10/26 08:51:34;;;;;;;2.80;2.50;;;;;;;23.39;47.58;101098.13;4188534;28;20110;-70
2022/10/26 08:53:41;;;;;;;2.25;2.05;;;;;;;23.37;47.49;101098.41;4197373;28;20040;-71
2022/10/26 08:55:57;;;;;;;4.18;2.20;;;;;;;23.36;47.71;101095.91;4196980;28;20044;-70
2022/10/26 08:58:01;;;;;;;2.40;2.13;;;;;;;23.35;47.58;101095.06;4196752;28;20418;-70
2022/10/26 09:00:20;;;;;;;2.75;2.30;;;;;;;23.37;47.68;101098.41;4197507;28;20097;-70
2022/10/26 09:02:22;;;;;;;2.88;2.20;;;;;;;23.38;47.34;101093.66;4194844;28;20122;-70
2022/10/26 09:04:28;;;;;;;2.35;2.15;;;;;;;23.37;47.73;101094.75;4195836;28;20102;-70
2022/10/26 09:06:35;;;;;;;2.30;2.10;;;;;;;23.27;47.50;101071.41;4196111;28;20556;-71
2022/10/26 09:09:00;;;;;;;3.03;2.60;;;;;;;23.34;47.67;101091.44;4197754;28;20048;-70
2022/10/26 09:11:16;;;;;;;2.78;2.35;;;;;;;23.39;47.58;101089.72;4197539;28;20118;-70
2022/10/26 09:13:42;;;;;;;2.17;1.98;;;;;;;23.36;47.55;101084.72;4195295;28;20089;-70
2022/10/26 09:15:52;;;;;;;;;;;;;;;23.37;47.91;101091.97;4180916;28;20423;-70
2022/10/26 09:18:24;;;;;;;3.05;2.33;;;;;;;23.41;47.62;101081.88;4195176;28;19958;-71
2022/10/26 09:20:41;;;;;;;2.25;2.05;;;;;;;23.43;47.59;101079.66;4197348;28;20480;-70
2022/10/26 09:22:57;;;;;;;2.50;2.28;;;;;;;23.40;47.64;101063.47;4187749;28;20048;-70
2022/10/26 09:25:10;;;;;;;2.17;1.98;;;;;;;23.39;47.53;101061.81;4196858;28;20040;-72
2022/10/26 09:27:11;;;;;;;2.90;2.45;;;;;;;23.39;47.78;101050.63;4196537;28;20109;-71
2022/10/26 09:29:13;;;;;;;2.42;2.13;;;;;;;23.39;47.87;101056.22;4197096;28;20109;-72
2022/10/26 09:31:17;;;;;;;2.63;2.17;;;;;;;23.38;47.77;101076.91;4196864;28;20040;-72
2022/10/26 09:33:23;;;;;;;2.85;2.08;;;;;;;23.36;47.77;101085.56;4196850;28;20450;-72
2022/10/26 09:36:00;;;;;;;3.30;2.20;;;;;;;23.31;48.01;101080.03;4196273;28;20102;-72
2022/10/26 09:38:16;;;;;;;2.45;2.22;;;;;;;23.37;47.83;101081.66;4197226;28;20053;-71
2022/10/26 09:40:54;;;;;;;2.47;2.28;;;;;;;23.33;47.83;101073.03;4196833;28;20041;-72
2022/10/26 09:43:04;;;;;;;5.60;2.25;;;;;;;23.37;47.87;101081.66;4196073;28;20368;-72
2022/10/26 09:45:29;;;;;;;2.85;2.15;;;;;;;23.34;47.83;101066.31;4187223;28;20098;-72
2022/10/26 09:47:38;;;;;;;3.10;2.35;;;;;;;23.37;47.68;101081.66;4196201;28;20040;-72
2022/10/26 09:49:51;;;;;;;4.25;2.38;;;;;;;23.36;47.52;101073.56;4213850;28;20464;-72
2022/10/26 09:51:53;;;;;;;2.95;2.45;;;;;;;23.36;47.66;101073.56;4210387;28;20086;-72